sensor_id;sensor_type;location;lat;lon;timestamp;P1;durP1;ratioP1;P2;durP2;ratioP2
24159;SDS011;62385;41.594;23.808;2023-04-06T00:00:20;1.90;;;1.60;;
24159;SDS011;62385;41.594;23.808;2023-04-06T00:02:46;1.63;;;0.87;;
24159;SDS011;62385;41.594;23.808;2023-04-06T00:05:12;2.73;;;1.83;;
24159;SDS011;62385;41.594;23.808;2023-04-06T00:07:37;9.70;;;2.77;;
24159;SDS011;62385;41.594;23.808;2023-04-06T00:10:03;2.20;;;1.40;;
24159;SDS011;62385;41.594;23.808;2023-04-06T00:12:29;2.30;;;1.33;;
24159;SDS011;62385;41.594;23.808;2023-04-06T00:14:55;3.20;;;1.60;;
24159;SDS011;62385;41.594;23.808;2023-04-06T00:17:20;2.30;;;1.57;;
24159;SDS011;62385;41.594;23.808;2023-04-06T00:19:46;2.53;;;2.00;;
24159;SDS011;62385;41.594;23.808;2023-04-06T00:22:11;1.67;;;1.13;;
24159;SDS011;62385;41.594;23.808;2023-04-06T00:24:37;0.93;;;0.93;;
24159;SDS011;62385;41.594;23.808;2023-04-06T00:27:03;1.93;;;1.37;;
24159;SDS011;62385;41.594;23.808;2023-04-06T00:29:28;2.10;;;1.40;;
24159;SDS011;62385;41.594;23.808;2023-04-06T00:31:54;2.33;;;1.17;;
24159;SDS011;62385;41.594;23.808;2023-04-06T00:34:21;0.80;;;0.80;;
24159;SDS011;62385;41.594;23.808;2023-04-06T00:36:46;2.40;;;1.13;;
24159;SDS011;62385;41.594;23.808;2023-04-06T00:39:12;1.53;;;0.80;;
24159;SDS011;62385;41.594;23.808;2023-04-06T00:41:38;1.03;;;0.97;;
24159;SDS011;62385;41.594;23.808;2023-04-06T00:44:07;2.00;;;0.93;;
24159;SDS011;62385;41.594;23.808;2023-04-06T00:46:33;0.50;;;0.37;;
24159;SDS011;62385;41.594;23.808;2023-04-06T00:48:59;1.23;;;0.80;;
24159;SDS011;62385;41.594;23.808;2023-04-06T00:51:24;0.53;;;0.37;;
24159;SDS011;62385;41.594;23.808;2023-04-06T00:53:50;0.60;;;0.60;;
24159;SDS011;62385;41.594;23.808;2023-04-06T00:56:16;0.73;;;0.73;;
24159;SDS011;62385;41.594;23.808;2023-04-06T00:58:49;3.10;;;1.00;;
24159;SDS011;62385;41.594;23.808;2023-04-06T01:01:15;0.23;;;0.13;;
24159;SDS011;62385;41.594;23.808;2023-04-06T01:03:41;1.20;;;1.00;;
24159;SDS011;62385;41.594;23.808;2023-04-06T01:06:13;1.33;;;1.23;;
24159;SDS011;62385;41.594;23.808;2023-04-06T01:08:41;0.33;;;0.20;;
24159;SDS011;62385;41.594;23.808;2023-04-06T01:11:15;0.30;;;0.30;;
24159;SDS011;62385;41.594;23.808;2023-04-06T01:13:43;1.40;;;0.97;;
24159;SDS011;62385;41.594;23.808;2023-04-06T01:16:24;1.13;;;0.77;;
24159;SDS011;62385;41.594;23.808;2023-04-06T01:19:11;0.60;;;0.60;;
24159;SDS011;62385;41.594;23.808;2023-04-06T01:21:41;0.43;;;0.40;;
24159;SDS011;62385;41.594;23.808;2023-04-06T01:24:27;0.57;;;0.47;;
24159;SDS011;62385;41.594;23.808;2023-04-06T01:27:13;1.27;;;1.17;;
24159;SDS011;62385;41.594;23.808;2023-04-06T01:29:59;2.40;;;0.63;;
24159;SDS011;62385;41.594;23.808;2023-04-06T01:32:48;2.00;;;1.07;;
24159;SDS011;62385;41.594;23.808;2023-04-06T01:35:18;0.97;;;0.53;;
24159;SDS011;62385;41.594;23.808;2023-04-06T01:37:54;0.70;;;0.70;;
24159;SDS011;62385;41.594;23.808;2023-04-06T01:40:27;3.83;;;1.13;;
24159;SDS011;62385;41.594;23.808;2023-04-06T01:42:52;0.90;;;0.73;;
24159;SDS011;62385;41.594;23.808;2023-04-06T01:45:27;0.93;;;0.80;;
24159;SDS011;62385;41.594;23.808;2023-04-06T01:47:57;1.70;;;1.60;;
24159;SDS011;62385;41.594;23.808;2023-04-06T01:50:25;1.60;;;1.27;;
24159;SDS011;62385;41.594;23.808;2023-04-06T01:52:51;1.67;;;1.33;;
24159;SDS011;62385;41.594;23.808;2023-04-06T01:55:17;3.07;;;1.47;;
24159;SDS011;62385;41.594;23.808;2023-04-06T01:58:00;1.30;;;1.20;;
24159;SDS011;62385;41.594;23.808;2023-04-06T02:00:32;9.67;;;1.23;;
24159;SDS011;62385;41.594;23.808;2023-04-06T02:02:58;0.50;;;0.40;;
24159;SDS011;62385;41.594;23.808;2023-04-06T02:05:28;0.90;;;0.60;;
24159;SDS011;62385;41.594;23.808;2023-04-06T02:07:57;3.90;;;0.73;;
24159;SDS011;62385;41.594;23.808;2023-04-06T02:10:30;6.97;;;0.93;;
24159;SDS011;62385;41.594;23.808;2023-04-06T02:13:15;1.53;;;1.00;;
24159;SDS011;62385;41.594;23.808;2023-04-06T02:15:46;1.03;;;0.90;;
24159;SDS011;62385;41.594;23.808;2023-04-06T02:18:11;1.97;;;1.20;;
24159;SDS011;62385;41.594;23.808;2023-04-06T02:20:37;1.70;;;0.57;;
24159;SDS011;62385;41.594;23.808;2023-04-06T02:23:02;2.17;;;0.97;;
24159;SDS011;62385;41.594;23.808;2023-04-06T02:25:28;0.57;;;0.33;;
24159;SDS011;62385;41.594;23.808;2023-04-06T02:27:54;2.13;;;1.33;;
24159;SDS011;62385;41.594;23.808;2023-04-06T02:30:19;1.07;;;0.87;;
24159;SDS011;62385;41.594;23.808;2023-04-06T02:32:45;1.27;;;1.17;;
24159;SDS011;62385;41.594;23.808;2023-04-06T02:35:12;1.70;;;0.87;;
24159;SDS011;62385;41.594;23.808;2023-04-06T02:37:39;0.60;;;0.60;;
24159;SDS011;62385;41.594;23.808;2023-04-06T02:40:04;0.50;;;0.40;;
24159;SDS011;62385;41.594;23.808;2023-04-06T02:42:31;1.23;;;0.70;;
24159;SDS011;62385;41.594;23.808;2023-04-06T02:44:58;0.60;;;0.60;;
24159;SDS011;62385;41.594;23.808;2023-04-06T02:47:29;0.33;;;0.30;;
24159;SDS011;62385;41.594;23.808;2023-04-06T02:49:54;0.60;;;0.43;;
24159;SDS011;62385;41.594;23.808;2023-04-06T02:52:20;0.57;;;0.57;;
24159;SDS011;62385;41.594;23.808;2023-04-06T02:54:46;1.90;;;0.30;;
24159;SDS011;62385;41.594;23.808;2023-04-06T02:57:12;1.80;;;1.63;;
24159;SDS011;62385;41.594;23.808;2023-04-06T02:59:41;1.23;;;1.13;;
24159;SDS011;62385;41.594;23.808;2023-04-06T03:02:18;0.60;;;0.60;;
24159;SDS011;62385;41.594;23.808;2023-04-06T03:04:45;2.73;;;0.97;;
24159;SDS011;62385;41.594;23.808;2023-04-06T03:07:20;0.23;;;0.23;;
24159;SDS011;62385;41.594;23.808;2023-04-06T03:09:47;1.10;;;1.00;;
24159;SDS011;62385;41.594;23.808;2023-04-06T03:12:12;1.43;;;1.07;;
24159;SDS011;62385;41.594;23.808;2023-04-06T03:14:58;0.50;;;0.50;;
24159;SDS011;62385;41.594;23.808;2023-04-06T03:17:24;1.67;;;0.90;;
24159;SDS011;62385;41.594;23.808;2023-04-06T03:19:50;0.97;;;0.97;;
24159;SDS011;62385;41.594;23.808;2023-04-06T03:22:16;4.53;;;0.87;;
24159;SDS011;62385;41.594;23.808;2023-04-06T03:24:42;0.70;;;0.63;;
24159;SDS011;62385;41.594;23.808;2023-04-06T03:27:26;1.33;;;0.70;;
24159;SDS011;62385;41.594;23.808;2023-04-06T03:29:53;0.67;;;0.53;;
24159;SDS011;62385;41.594;23.808;2023-04-06T03:32:26;2.30;;;0.87;;
24159;SDS011;62385;41.594;23.808;2023-04-06T03:34:52;1.37;;;0.73;;
24159;SDS011;62385;41.594;23.808;2023-04-06T03:37:17;1.63;;;1.53;;
24159;SDS011;62385;41.594;23.808;2023-04-06T03:39:50;1.63;;;1.03;;
24159;SDS011;62385;41.594;23.808;2023-04-06T03:42:20;1.90;;;1.30;;
24159;SDS011;62385;41.594;23.808;2023-04-06T03:44:52;1.07;;;0.50;;
24159;SDS011;62385;41.594;23.808;2023-04-06T03:47:18;1.07;;;0.40;;
24159;SDS011;62385;41.594;23.808;2023-04-06T03:49:45;0.23;;;0.13;;
24159;SDS011;62385;41.594;23.808;2023-04-06T03:52:12;1.67;;;1.47;;
24159;SDS011;62385;41.594;23.808;2023-04-06T03:54:39;1.33;;;1.23;;
24159;SDS011;62385;41.594;23.808;2023-04-06T03:57:05;1.57;;;1.00;;
24159;SDS011;62385;41.594;23.808;2023-04-06T03:59:30;1.43;;;1.30;;
24159;SDS011;62385;41.594;23.808;2023-04-06T04:01:56;2.30;;;2.00;;
24159;SDS011;62385;41.594;23.808;2023-04-06T04:04:22;2.43;;;0.87;;
24159;SDS011;62385;41.594;23.808;2023-04-06T04:06:48;1.80;;;1.67;;
24159;SDS011;62385;41.594;23.808;2023-04-06T04:09:13;1.40;;;1.30;;
24159;SDS011;62385;41.594;23.808;2023-04-06T04:11:39;2.03;;;1.70;;
24159;SDS011;62385;41.594;23.808;2023-04-06T04:14:05;2.53;;;1.50;;
24159;SDS011;62385;41.594;23.808;2023-04-06T04:16:30;1.20;;;0.87;;
24159;SDS011;62385;41.594;23.808;2023-04-06T04:18:56;1.60;;;1.07;;
24159;SDS011;62385;41.594;23.808;2023-04-06T04:21:23;3.20;;;2.87;;
24159;SDS011;62385;41.594;23.808;2023-04-06T04:23:51;1.50;;;1.40;;
24159;SDS011;62385;41.594;23.808;2023-04-06T04:26:37;15.73;;;10.43;;
24159;SDS011;62385;41.594;23.808;2023-04-06T04:29:06;9.80;;;5.73;;
24159;SDS011;62385;41.594;23.808;2023-04-06T04:31:32;10.17;;;5.47;;
24159;SDS011;62385;41.594;23.808;2023-04-06T04:34:01;3.13;;;2.53;;
24159;SDS011;62385;41.594;23.808;2023-04-06T04:36:30;3.83;;;2.90;;
24159;SDS011;62385;41.594;23.808;2023-04-06T04:38:58;3.10;;;1.70;;
24159;SDS011;62385;41.594;23.808;2023-04-06T04:41:28;2.93;;;1.90;;
24159;SDS011;62385;41.594;23.808;2023-04-06T04:43:54;2.53;;;2.03;;
24159;SDS011;62385;41.594;23.808;2023-04-06T04:46:23;3.20;;;1.90;;
24159;SDS011;62385;41.594;23.808;2023-04-06T04:48:49;15.47;;;5.40;;
24159;SDS011;62385;41.594;23.808;2023-04-06T04:51:15;33.60;;;11.07;;
24159;SDS011;62385;41.594;23.808;2023-04-06T04:54:10;19.63;;;6.93;;
24159;SDS011;62385;41.594;23.808;2023-04-06T04:56:36;14.50;;;7.23;;
24159;SDS011;62385;41.594;23.808;2023-04-06T04:59:14;9.43;;;6.27;;
24159;SDS011;62385;41.594;23.808;2023-04-06T05:01:46;8.87;;;3.23;;
24159;SDS011;62385;41.594;23.808;2023-04-06T05:04:12;9.93;;;4.33;;
24159;SDS011;62385;41.594;23.808;2023-04-06T05:06:39;12.60;;;8.00;;
24159;SDS011;62385;41.594;23.808;2023-04-06T05:09:04;27.73;;;7.37;;
24159;SDS011;62385;41.594;23.808;2023-04-06T05:11:30;4.47;;;4.07;;
24159;SDS011;62385;41.594;23.808;2023-04-06T05:13:59;4.50;;;3.60;;
24159;SDS011;62385;41.594;23.808;2023-04-06T05:16:25;12.43;;;4.87;;
24159;SDS011;62385;41.594;23.808;2023-04-06T05:18:51;12.73;;;6.17;;
24159;SDS011;62385;41.594;23.808;2023-04-06T05:21:18;6.33;;;3.07;;
24159;SDS011;62385;41.594;23.808;2023-04-06T05:24:01;8.50;;;5.00;;
24159;SDS011;62385;41.594;23.808;2023-04-06T05:26:29;11.23;;;5.70;;
24159;SDS011;62385;41.594;23.808;2023-04-06T05:29:00;7.13;;;2.87;;
24159;SDS011;62385;41.594;23.808;2023-04-06T05:31:30;7.53;;;4.80;;
24159;SDS011;62385;41.594;23.808;2023-04-06T05:33:56;5.20;;;4.70;;
24159;SDS011;62385;41.594;23.808;2023-04-06T05:36:34;3.90;;;2.27;;
24159;SDS011;62385;41.594;23.808;2023-04-06T05:39:05;4.93;;;2.80;;
24159;SDS011;62385;41.594;23.808;2023-04-06T05:41:48;3.73;;;2.77;;
24159;SDS011;62385;41.594;23.808;2023-04-06T05:44:20;3.33;;;2.30;;
24159;SDS011;62385;41.594;23.808;2023-04-06T05:46:53;2.50;;;2.10;;
24159;SDS011;62385;41.594;23.808;2023-04-06T05:49:20;1.87;;;1.77;;
24159;SDS011;62385;41.594;23.808;2023-04-06T05:51:46;2.73;;;2.50;;
24159;SDS011;62385;41.594;23.808;2023-04-06T05:54:11;2.13;;;1.73;;
24159;SDS011;62385;41.594;23.808;2023-04-06T05:56:38;3.13;;;2.27;;
24159;SDS011;62385;41.594;23.808;2023-04-06T05:59:05;3.70;;;2.20;;
24159;SDS011;62385;41.594;23.808;2023-04-06T06:01:30;2.00;;;1.90;;
24159;SDS011;62385;41.594;23.808;2023-04-06T06:03:56;4.07;;;3.67;;
24159;SDS011;62385;41.594;23.808;2023-04-06T06:06:28;4.70;;;2.70;;
24159;SDS011;62385;41.594;23.808;2023-04-06T06:09:27;7.77;;;5.20;;
24159;SDS011;62385;41.594;23.808;2023-04-06T06:12:09;2.73;;;2.10;;
24159;SDS011;62385;41.594;23.808;2023-04-06T06:14:34;3.37;;;1.73;;
24159;SDS011;62385;41.594;23.808;2023-04-06T06:17:00;2.23;;;1.47;;
24159;SDS011;62385;41.594;23.808;2023-04-06T06:19:27;1.63;;;0.93;;
24159;SDS011;62385;41.594;23.808;2023-04-06T06:21:56;2.57;;;2.33;;
24159;SDS011;62385;41.594;23.808;2023-04-06T06:24:22;1.60;;;1.13;;
24159;SDS011;62385;41.594;23.808;2023-04-06T06:26:47;4.80;;;1.73;;
24159;SDS011;62385;41.594;23.808;2023-04-06T06:29:16;3.27;;;2.17;;
24159;SDS011;62385;41.594;23.808;2023-04-06T06:31:42;1.63;;;0.60;;
24159;SDS011;62385;41.594;23.808;2023-04-06T06:34:09;1.73;;;1.63;;
24159;SDS011;62385;41.594;23.808;2023-04-06T06:36:36;4.47;;;2.70;;
24159;SDS011;62385;41.594;23.808;2023-04-06T06:39:05;3.10;;;2.67;;
24159;SDS011;62385;41.594;23.808;2023-04-06T06:41:30;1.33;;;1.20;;
24159;SDS011;62385;41.594;23.808;2023-04-06T06:43:57;1.57;;;1.47;;
24159;SDS011;62385;41.594;23.808;2023-04-06T06:46:22;4.17;;;0.60;;
24159;SDS011;62385;41.594;23.808;2023-04-06T06:48:48;4.07;;;1.97;;
24159;SDS011;62385;41.594;23.808;2023-04-06T06:51:13;2.03;;;1.47;;
24159;SDS011;62385;41.594;23.808;2023-04-06T06:53:39;2.23;;;2.00;;
24159;SDS011;62385;41.594;23.808;2023-04-06T06:56:05;2.33;;;1.67;;
24159;SDS011;62385;41.594;23.808;2023-04-06T06:58:31;2.03;;;1.53;;
24159;SDS011;62385;41.594;23.808;2023-04-06T07:00:58;3.20;;;1.80;;
24159;SDS011;62385;41.594;23.808;2023-04-06T07:03:26;5.70;;;1.50;;
24159;SDS011;62385;41.594;23.808;2023-04-06T07:05:53;1.83;;;1.67;;
24159;SDS011;62385;41.594;23.808;2023-04-06T07:08:22;2.03;;;1.47;;
24159;SDS011;62385;41.594;23.808;2023-04-06T07:10:49;2.50;;;1.47;;
24159;SDS011;62385;41.594;23.808;2023-04-06T07:13:17;2.67;;;2.17;;
24159;SDS011;62385;41.594;23.808;2023-04-06T07:15:49;3.53;;;1.90;;
24159;SDS011;62385;41.594;23.808;2023-04-06T07:18:16;1.40;;;0.97;;
24159;SDS011;62385;41.594;23.808;2023-04-06T07:20:43;1.17;;;0.97;;
24159;SDS011;62385;41.594;23.808;2023-04-06T07:23:09;3.67;;;2.30;;
24159;SDS011;62385;41.594;23.808;2023-04-06T07:25:35;1.10;;;1.00;;
24159;SDS011;62385;41.594;23.808;2023-04-06T07:28:02;1.20;;;0.90;;
24159;SDS011;62385;41.594;23.808;2023-04-06T07:30:30;1.77;;;1.67;;
24159;SDS011;62385;41.594;23.808;2023-04-06T07:32:57;1.07;;;0.60;;
24159;SDS011;62385;41.594;23.808;2023-04-06T07:35:25;0.60;;;0.60;;
24159;SDS011;62385;41.594;23.808;2023-04-06T07:37:53;1.73;;;1.10;;
24159;SDS011;62385;41.594;23.808;2023-04-06T07:40:19;1.87;;;1.37;;
24159;SDS011;62385;41.594;23.808;2023-04-06T07:42:45;0.47;;;0.47;;
24159;SDS011;62385;41.594;23.808;2023-04-06T07:45:11;1.53;;;1.07;;
24159;SDS011;62385;41.594;23.808;2023-04-06T07:47:37;2.83;;;0.80;;
24159;SDS011;62385;41.594;23.808;2023-04-06T07:50:03;1.07;;;0.90;;
24159;SDS011;62385;41.594;23.808;2023-04-06T07:52:30;1.20;;;0.67;;
24159;SDS011;62385;41.594;23.808;2023-04-06T07:54:57;0.90;;;0.87;;
24159;SDS011;62385;41.594;23.808;2023-04-06T07:57:23;0.90;;;0.70;;
24159;SDS011;62385;41.594;23.808;2023-04-06T07:59:49;2.40;;;1.27;;
24159;SDS011;62385;41.594;23.808;2023-04-06T08:02:15;0.87;;;0.87;;
24159;SDS011;62385;41.594;23.808;2023-04-06T08:04:43;1.13;;;0.73;;
24159;SDS011;62385;41.594;23.808;2023-04-06T08:07:09;1.93;;;1.23;;
24159;SDS011;62385;41.594;23.808;2023-04-06T08:09:34;1.47;;;1.00;;
24159;SDS011;62385;41.594;23.808;2023-04-06T08:12:00;1.47;;;0.77;;
24159;SDS011;62385;41.594;23.808;2023-04-06T08:14:26;0.50;;;0.30;;
24159;SDS011;62385;41.594;23.808;2023-04-06T08:16:52;1.00;;;0.90;;
24159;SDS011;62385;41.594;23.808;2023-04-06T08:19:19;1.50;;;1.17;;
24159;SDS011;62385;41.594;23.808;2023-04-06T08:21:45;1.67;;;1.00;;
24159;SDS011;62385;41.594;23.808;2023-04-06T08:24:12;0.30;;;0.23;;
24159;SDS011;62385;41.594;23.808;2023-04-06T08:26:38;2.03;;;1.57;;
24159;SDS011;62385;41.594;23.808;2023-04-06T08:29:04;2.30;;;1.23;;
24159;SDS011;62385;41.594;23.808;2023-04-06T08:31:32;50.27;;;8.67;;
24159;SDS011;62385;41.594;23.808;2023-04-06T08:34:03;3.00;;;2.17;;
24159;SDS011;62385;41.594;23.808;2023-04-06T08:36:29;1.27;;;1.17;;
24159;SDS011;62385;41.594;23.808;2023-04-06T08:38:55;1.23;;;1.00;;
24159;SDS011;62385;41.594;23.808;2023-04-06T08:41:20;0.87;;;0.80;;
24159;SDS011;62385;41.594;23.808;2023-04-06T08:43:47;4.10;;;1.33;;
24159;SDS011;62385;41.594;23.808;2023-04-06T08:46:15;1.00;;;0.70;;
24159;SDS011;62385;41.594;23.808;2023-04-06T08:48:41;2.10;;;1.13;;
24159;SDS011;62385;41.594;23.808;2023-04-06T08:51:08;0.87;;;0.83;;
24159;SDS011;62385;41.594;23.808;2023-04-06T08:53:36;1.27;;;0.57;;
24159;SDS011;62385;41.594;23.808;2023-04-06T08:56:02;0.53;;;0.53;;
24159;SDS011;62385;41.594;23.808;2023-04-06T08:58:32;2.10;;;0.97;;
24159;SDS011;62385;41.594;23.808;2023-04-06T09:01:00;6.80;;;0.93;;
24159;SDS011;62385;41.594;23.808;2023-04-06T09:03:32;0.60;;;0.53;;
24159;SDS011;62385;41.594;23.808;2023-04-06T09:06:03;1.87;;;1.53;;
24159;SDS011;62385;41.594;23.808;2023-04-06T09:08:29;1.13;;;0.63;;
24159;SDS011;62385;41.594;23.808;2023-04-06T09:10:55;1.60;;;1.50;;
24159;SDS011;62385;41.594;23.808;2023-04-06T09:13:21;1.37;;;1.27;;
24159;SDS011;62385;41.594;23.808;2023-04-06T09:15:46;0.60;;;0.60;;
24159;SDS011;62385;41.594;23.808;2023-04-06T09:18:30;1.90;;;0.77;;
24159;SDS011;62385;41.594;23.808;2023-04-06T09:20:58;2.50;;;1.63;;
24159;SDS011;62385;41.594;23.808;2023-04-06T09:23:27;1.40;;;1.30;;
24159;SDS011;62385;41.594;23.808;2023-04-06T09:26:03;1.30;;;1.20;;
24159;SDS011;62385;41.594;23.808;2023-04-06T09:31:13;1.10;;;0.90;;
24159;SDS011;62385;41.594;23.808;2023-04-06T09:33:45;1.43;;;0.77;;
24159;SDS011;62385;41.594;23.808;2023-04-06T09:36:12;1.10;;;1.00;;
24159;SDS011;62385;41.594;23.808;2023-04-06T09:38:50;1.17;;;0.70;;
24159;SDS011;62385;41.594;23.808;2023-04-06T09:41:35;1.23;;;1.07;;
24159;SDS011;62385;41.594;23.808;2023-04-06T09:44:08;2.43;;;1.13;;
24159;SDS011;62385;41.594;23.808;2023-04-06T09:46:39;1.97;;;1.07;;
24159;SDS011;62385;41.594;23.808;2023-04-06T09:49:07;0.57;;;0.20;;
24159;SDS011;62385;41.594;23.808;2023-04-06T09:51:38;1.30;;;0.70;;
24159;SDS011;62385;41.594;23.808;2023-04-06T09:54:07;0.67;;;0.67;;
24159;SDS011;62385;41.594;23.808;2023-04-06T09:56:37;1.37;;;1.13;;
24159;SDS011;62385;41.594;23.808;2023-04-06T09:59:14;0.83;;;0.80;;
24159;SDS011;62385;41.594;23.808;2023-04-06T10:01:51;1.40;;;1.03;;
24159;SDS011;62385;41.594;23.808;2023-04-06T10:06:43;0.40;;;0.40;;
24159;SDS011;62385;41.594;23.808;2023-04-06T10:09:10;0.73;;;0.73;;
24159;SDS011;62385;41.594;23.808;2023-04-06T10:11:36;0.60;;;0.47;;
24159;SDS011;62385;41.594;23.808;2023-04-06T10:14:02;0.20;;;0.17;;
24159;SDS011;62385;41.594;23.808;2023-04-06T10:16:28;0.90;;;0.60;;
24159;SDS011;62385;41.594;23.808;2023-04-06T10:19:13;0.80;;;0.40;;
24159;SDS011;62385;41.594;23.808;2023-04-06T10:21:43;0.90;;;0.90;;
24159;SDS011;62385;41.594;23.808;2023-04-06T10:24:13;0.70;;;0.57;;
24159;SDS011;62385;41.594;23.808;2023-04-06T10:26:39;1.10;;;1.00;;
24159;SDS011;62385;41.594;23.808;2023-04-06T10:29:05;0.97;;;0.70;;
24159;SDS011;62385;41.594;23.808;2023-04-06T10:31:31;1.23;;;0.70;;
24159;SDS011;62385;41.594;23.808;2023-04-06T10:33:58;1.07;;;0.77;;
24159;SDS011;62385;41.594;23.808;2023-04-06T10:36:28;1.35;;;1.00;;
24159;SDS011;62385;41.594;23.808;2023-04-06T10:38:58;1.77;;;1.00;;
24159;SDS011;62385;41.594;23.808;2023-04-06T10:41:36;0.80;;;0.50;;
24159;SDS011;62385;41.594;23.808;2023-04-06T10:44:06;0.50;;;0.50;;
24159;SDS011;62385;41.594;23.808;2023-04-06T10:46:32;1.10;;;1.00;;
24159;SDS011;62385;41.594;23.808;2023-04-06T10:49:09;1.17;;;0.95;;
24159;SDS011;62385;41.594;23.808;2023-04-06T10:51:37;1.80;;;0.47;;
24159;SDS011;62385;41.594;23.808;2023-04-06T10:54:03;1.83;;;0.82;;
24159;SDS011;62385;41.594;23.808;2023-04-06T10:56:31;0.95;;;0.90;;
24159;SDS011;62385;41.594;23.808;2023-04-06T10:58:59;0.75;;;0.57;;
24159;SDS011;62385;41.594;23.808;2023-04-06T11:01:25;1.52;;;0.93;;
24159;SDS011;62385;41.594;23.808;2023-04-06T11:03:56;0.47;;;0.38;;
24159;SDS011;62385;41.594;23.808;2023-04-06T11:06:26;1.05;;;0.68;;
24159;SDS011;62385;41.594;23.808;2023-04-06T11:08:54;2.00;;;0.60;;
24159;SDS011;62385;41.594;23.808;2023-04-06T11:11:22;2.40;;;0.85;;
24159;SDS011;62385;41.594;23.808;2023-04-06T11:13:52;0.75;;;0.68;;
24159;SDS011;62385;41.594;23.808;2023-04-06T11:16:24;0.77;;;0.43;;
24159;SDS011;62385;41.594;23.808;2023-04-06T11:19:00;1.38;;;0.60;;
24159;SDS011;62385;41.594;23.808;2023-04-06T11:22:06;0.82;;;0.68;;
24159;SDS011;62385;41.594;23.808;2023-04-06T11:24:34;3.72;;;1.52;;
24159;SDS011;62385;41.594;23.808;2023-04-06T11:26:59;0.85;;;0.40;;
24159;SDS011;62385;41.594;23.808;2023-04-06T11:29:30;1.05;;;0.93;;
24159;SDS011;62385;41.594;23.808;2023-04-06T11:32:00;1.30;;;0.82;;
24159;SDS011;62385;41.594;23.808;2023-04-06T11:34:28;1.17;;;0.77;;
24159;SDS011;62385;41.594;23.808;2023-04-06T11:40:34;3.72;;;0.80;;
24159;SDS011;62385;41.594;23.808;2023-04-06T11:43:00;1.42;;;0.73;;
24159;SDS011;62385;41.594;23.808;2023-04-06T11:45:25;1.02;;;0.93;;
24159;SDS011;62385;41.594;23.808;2023-04-06T11:48:20;1.15;;;0.80;;
24159;SDS011;62385;41.594;23.808;2023-04-06T11:54:40;1.27;;;0.57;;
24159;SDS011;62385;41.594;23.808;2023-04-06T11:57:08;1.27;;;0.98;;
24159;SDS011;62385;41.594;23.808;2023-04-06T11:59:34;2.53;;;1.38;;
24159;SDS011;62385;41.594;23.808;2023-04-06T12:02:04;2.45;;;1.08;;
24159;SDS011;62385;41.594;23.808;2023-04-06T12:27:48;1.35;;;1.02;;
24159;SDS011;62385;41.594;23.808;2023-04-06T12:43:00;1.27;;;1.15;;
24159;SDS011;62385;41.594;23.808;2023-04-06T12:45:21;2.10;;;1.15;;
24159;SDS011;62385;41.594;23.808;2023-04-06T12:48:52;1.88;;;1.15;;
24159;SDS011;62385;41.594;23.808;2023-04-06T12:54:49;1.15;;;1.05;;
24159;SDS011;62385;41.594;23.808;2023-04-06T13:02:21;2.28;;;1.35;;
24159;SDS011;62385;41.594;23.808;2023-04-06T13:20:15;1.10;;;1.00;;
24159;SDS011;62385;41.594;23.808;2023-04-06T13:23:50;0.73;;;0.60;;
24159;SDS011;62385;41.594;23.808;2023-04-06T13:29:45;0.90;;;0.60;;
24159;SDS011;62385;41.594;23.808;2023-04-06T13:32:14;0.65;;;0.55;;
24159;SDS011;62385;41.594;23.808;2023-04-06T13:38:28;1.23;;;0.82;;
24159;SDS011;62385;41.594;23.808;2023-04-06T13:41:19;1.20;;;1.10;;
24159;SDS011;62385;41.594;23.808;2023-04-06T13:43:48;0.80;;;0.70;;
24159;SDS011;62385;41.594;23.808;2023-04-06T13:46:15;0.45;;;0.45;;
24159;SDS011;62385;41.594;23.808;2023-04-06T13:48:42;0.93;;;0.82;;
24159;SDS011;62385;41.594;23.808;2023-04-06T13:51:09;0.93;;;0.70;;
24159;SDS011;62385;41.594;23.808;2023-04-06T13:53:56;1.52;;;0.90;;
24159;SDS011;62385;41.594;23.808;2023-04-06T13:56:29;0.63;;;0.60;;
24159;SDS011;62385;41.594;23.808;2023-04-06T13:58:55;0.80;;;0.70;;
24159;SDS011;62385;41.594;23.808;2023-04-06T14:01:22;1.33;;;1.13;;
24159;SDS011;62385;41.594;23.808;2023-04-06T14:03:48;0.95;;;0.47;;
24159;SDS011;62385;41.594;23.808;2023-04-06T14:06:14;0.60;;;0.50;;
24159;SDS011;62385;41.594;23.808;2023-04-06T14:08:40;1.20;;;0.80;;
24159;SDS011;62385;41.594;23.808;2023-04-06T14:11:07;0.77;;;0.70;;
24159;SDS011;62385;41.594;23.808;2023-04-06T14:13:37;0.95;;;0.80;;
24159;SDS011;62385;41.594;23.808;2023-04-06T14:16:03;0.65;;;0.45;;
24159;SDS011;62385;41.594;23.808;2023-04-06T14:18:29;1.00;;;0.70;;
24159;SDS011;62385;41.594;23.808;2023-04-06T14:20:56;1.02;;;0.65;;
24159;SDS011;62385;41.594;23.808;2023-04-06T14:23:22;1.55;;;0.65;;
24159;SDS011;62385;41.594;23.808;2023-04-06T14:25:51;1.00;;;0.90;;
24159;SDS011;62385;41.594;23.808;2023-04-06T14:28:17;1.33;;;1.02;;
24159;SDS011;62385;41.594;23.808;2023-04-06T14:30:44;0.90;;;0.55;;
24159;SDS011;62385;41.594;23.808;2023-04-06T14:33:10;1.65;;;1.05;;
24159;SDS011;62385;41.594;23.808;2023-04-06T14:35:39;1.10;;;0.80;;
24159;SDS011;62385;41.594;23.808;2023-04-06T14:38:05;1.80;;;0.88;;
24159;SDS011;62385;41.594;23.808;2023-04-06T14:40:33;0.50;;;0.50;;
24159;SDS011;62385;41.594;23.808;2023-04-06T14:43:00;1.35;;;0.73;;
24159;SDS011;62385;41.594;23.808;2023-04-06T14:45:25;1.17;;;1.00;;
24159;SDS011;62385;41.594;23.808;2023-04-06T14:47:51;0.80;;;0.70;;
24159;SDS011;62385;41.594;23.808;2023-04-06T14:50:16;0.98;;;0.70;;
24159;SDS011;62385;41.594;23.808;2023-04-06T14:52:42;1.95;;;1.08;;
24159;SDS011;62385;41.594;23.808;2023-04-06T14:55:08;1.15;;;1.05;;
24159;SDS011;62385;41.594;23.808;2023-04-06T14:57:34;1.05;;;0.65;;
24159;SDS011;62385;41.594;23.808;2023-04-06T14:59:59;1.40;;;0.70;;
24159;SDS011;62385;41.594;23.808;2023-04-06T15:02:25;1.10;;;0.70;;
24159;SDS011;62385;41.594;23.808;2023-04-06T15:04:50;1.17;;;0.70;;
24159;SDS011;62385;41.594;23.808;2023-04-06T15:07:19;0.70;;;0.65;;
24159;SDS011;62385;41.594;23.808;2023-04-06T15:12:55;1.55;;;0.90;;
24159;SDS011;62385;41.594;23.808;2023-04-06T15:19:43;1.42;;;1.30;;
24159;SDS011;62385;41.594;23.808;2023-04-06T15:22:09;2.55;;;1.45;;
24159;SDS011;62385;41.594;23.808;2023-04-06T15:24:39;1.42;;;1.20;;
24159;SDS011;62385;41.594;23.808;2023-04-06T15:27:14;1.90;;;1.02;;
24159;SDS011;62385;41.594;23.808;2023-04-06T15:29:40;0.82;;;0.77;;
24159;SDS011;62385;41.594;23.808;2023-04-06T15:32:05;1.55;;;1.40;;
24159;SDS011;62385;41.594;23.808;2023-04-06T15:34:31;2.38;;;1.10;;
24159;SDS011;62385;41.594;23.808;2023-04-06T15:37:00;1.88;;;1.13;;
24159;SDS011;62385;41.594;23.808;2023-04-06T15:39:26;1.05;;;0.95;;
24159;SDS011;62385;41.594;23.808;2023-04-06T15:41:53;1.50;;;1.13;;
24159;SDS011;62385;41.594;23.808;2023-04-06T15:44:19;0.90;;;0.90;;
24159;SDS011;62385;41.594;23.808;2023-04-06T15:46:45;1.50;;;1.38;;
24159;SDS011;62385;41.594;23.808;2023-04-06T15:49:11;2.78;;;1.25;;
24159;SDS011;62385;41.594;23.808;2023-04-06T15:51:37;1.65;;;1.15;;
24159;SDS011;62385;41.594;23.808;2023-04-06T15:54:03;4.07;;;2.03;;
24159;SDS011;62385;41.594;23.808;2023-04-06T15:56:29;1.65;;;1.55;;
24159;SDS011;62385;41.594;23.808;2023-04-06T15:58:56;2.83;;;1.48;;
24159;SDS011;62385;41.594;23.808;2023-04-06T16:01:22;6.95;;;1.35;;
24159;SDS011;62385;41.594;23.808;2023-04-06T16:03:47;1.50;;;1.30;;
24159;SDS011;62385;41.594;23.808;2023-04-06T16:06:31;3.22;;;1.42;;
24159;SDS011;62385;41.594;23.808;2023-04-06T16:08:57;2.38;;;1.52;;
24159;SDS011;62385;41.594;23.808;2023-04-06T16:11:22;3.30;;;1.65;;